Terminal Aerodrome Forecast
Issued by NWS Corpus Christi, TX

Home | Current Version | Previous Version | Text Only | Print | Product List | Glossary On
Versions: 1 2 3 4 5 6 7 8 9 10 11 12 13 14 15 16 17 18
000
FTUS44 KCRP 271720
TAFCRP
TAF
KCRP 271720Z 2718/2818 12015KT P6SM VCSH SCT015 SCT025 BKN060
      TEMPO 2718/2719 SHRA SCT015 BKN025
     FM271900 12015KT P6SM VCSH BKN035 BKN050 OVC150
      TEMPO 2719/2723 TSRA BKN030CB
     FM280000 VRB04KT P6SM SCT025 BKN110
     FM281500 03006KT P6SM VCSH BKN025 BKN050=

USA.gov is the U.S. government's official web portal to all federal, state and local government web resources and services.